createdAt,value
2022-12-17T00:00:24.483Z,37.65
2022-12-17T00:05:42.496Z,47.30
2022-12-17T00:10:57.639Z,42.30
2022-12-17T00:16:12.350Z,42.15
2022-12-17T00:21:27.672Z,40.20
2022-12-17T00:26:42.454Z,41.53
2022-12-17T00:31:57.736Z,40.95
2022-12-17T00:37:12.634Z,34.40
2022-12-17T00:42:27.592Z,35.83
2022-12-17T00:47:42.944Z,42.17
2022-12-17T00:52:57.825Z,33.75
2022-12-17T00:58:13.929Z,32.97
2022-12-17T01:03:31.032Z,33.20
2022-12-17T01:08:46.177Z,35.97
2022-12-17T01:14:00.964Z,39.33
2022-12-17T01:19:17.001Z,32.13
2022-12-17T01:24:31.890Z,28.55
2022-12-17T01:29:46.991Z,25.70
2022-12-17T01:35:01.857Z,34.10
2022-12-17T01:40:16.585Z,42.10
2022-12-17T01:45:32.638Z,30.80
2022-12-17T01:50:52.593Z,39.45
2022-12-17T01:56:07.648Z,31.73
2022-12-17T02:01:22.964Z,32.00
2022-12-17T02:06:47.951Z,38.92
2022-12-17T02:12:26.957Z,33.60
2022-12-17T02:17:45.816Z,29.52
2022-12-17T02:28:25.098Z,40.47
2022-12-17T02:33:40.268Z,27.35
2022-12-17T02:38:56.710Z,27.75
2022-12-17T02:44:14.055Z,31.52
2022-12-17T02:49:28.938Z,27.58
2022-12-17T02:54:48.516Z,29.70
2022-12-17T03:00:03.267Z,35.95
2022-12-17T03:05:43.582Z,34.60
2022-12-17T03:10:53.415Z,30.92
2022-12-17T03:16:08.356Z,48.58
2022-12-17T03:21:23.412Z,46.10
2022-12-17T03:26:38.263Z,83.20
2022-12-17T03:31:54.259Z,124.68
2022-12-17T03:37:09.320Z,37.80
2022-12-17T03:42:25.021Z,33.50
2022-12-17T03:47:40.019Z,64.25
2022-12-17T03:52:55.107Z,158.15
2022-12-17T03:58:10.302Z,143.90
2022-12-17T04:03:25.524Z,167.68
2022-12-17T04:08:40.578Z,159.82
2022-12-17T04:13:55.614Z,173.73
2022-12-17T04:19:10.406Z,199.15
2022-12-17T04:24:25.428Z,120.13
2022-12-17T04:29:40.395Z,132.65
2022-12-17T04:34:55.330Z,62.40
2022-12-17T04:40:10.195Z,39.28
2022-12-17T04:45:25.833Z,84.22
2022-12-17T04:50:41.169Z,39.40
2022-12-17T04:55:56.300Z,73.72
2022-12-17T05:01:11.876Z,46.00
2022-12-17T05:06:27.302Z,73.82
2022-12-17T05:11:42.364Z,65.97
2022-12-17T05:16:57.156Z,54.92
2022-12-17T05:22:11.949Z,73.68
2022-12-17T05:27:27.232Z,45.70
2022-12-17T05:32:42.698Z,114.10
2022-12-17T05:37:57.648Z,42.78
2022-12-17T05:43:20.289Z,62.78
2022-12-17T05:48:35.377Z,49.28
2022-12-17T05:53:50.710Z,111.22
2022-12-17T05:59:05.539Z,45.30
2022-12-17T06:04:20.830Z,46.58
2022-12-17T06:09:35.891Z,61.10
2022-12-17T06:14:50.766Z,82.75
2022-12-17T06:20:05.629Z,48.03
2022-12-17T06:25:20.621Z,41.22
2022-12-17T06:30:35.774Z,30.38
2022-12-17T06:35:50.563Z,71.28
2022-12-17T06:41:05.440Z,49.63
2022-12-17T06:46:20.498Z,50.85
2022-12-17T06:51:35.493Z,57.13
2022-12-17T06:56:50.559Z,43.85
2022-12-17T07:02:05.757Z,51.95
2022-12-17T07:07:20.991Z,91.38
2022-12-17T07:12:35.679Z,71.50
2022-12-17T07:17:50.742Z,49.22
2022-12-17T07:23:05.931Z,64.10
2022-12-17T07:28:21.288Z,47.53
2022-12-17T07:33:53.236Z,69.40
2022-12-17T07:39:08.585Z,65.32
2022-12-17T07:44:23.332Z,57.75
2022-12-17T07:49:38.628Z,45.08
2022-12-17T07:54:53.510Z,46.88
2022-12-17T08:00:08.476Z,49.08
2022-12-17T08:05:23.921Z,52.08
2022-12-17T08:10:39.153Z,52.80
2022-12-17T08:15:54.066Z,40.20
2022-12-17T08:21:09.316Z,46.83
2022-12-17T08:26:25.168Z,45.10
2022-12-17T08:31:41.901Z,58.53
2022-12-17T08:36:56.917Z,53.42
2022-12-17T08:42:11.998Z,51.17
2022-12-17T08:47:27.076Z,40.65
2022-12-17T08:52:42.234Z,86.53
2022-12-17T08:57:57.446Z,54.90
2022-12-17T09:03:19.370Z,46.03
2022-12-17T09:08:34.294Z,64.43
2022-12-17T09:14:09.056Z,72.20
2022-12-17T09:19:24.245Z,64.53
2022-12-17T09:24:38.965Z,54.45
2022-12-17T09:29:53.696Z,80.60
2022-12-17T09:35:08.722Z,49.08
2022-12-17T09:40:24.130Z,62.38
2022-12-17T09:45:44.936Z,47.90
2022-12-17T09:51:00.380Z,59.30
2022-12-17T09:56:16.583Z,49.22
2022-12-17T10:01:35.970Z,51.20
2022-12-17T10:06:53.906Z,41.97
2022-12-17T10:12:09.007Z,51.38
2022-12-17T10:17:31.806Z,37.33
2022-12-17T10:22:47.092Z,45.55
2022-12-17T10:28:01.817Z,53.83
2022-12-17T10:33:18.002Z,55.22
2022-12-17T10:38:59.098Z,50.58
2022-12-17T10:44:13.858Z,44.67
2022-12-17T10:49:30.913Z,42.40
2022-12-17T10:54:49.820Z,49.67
2022-12-17T11:00:05.437Z,44.35
2022-12-17T11:05:22.241Z,53.35
2022-12-17T11:11:04.572Z,51.92
2022-12-17T11:16:20.298Z,64.80
2022-12-17T11:21:50.452Z,50.25
2022-12-17T11:27:09.150Z,53.70
2022-12-17T11:32:46.510Z,48.22
2022-12-17T11:38:24.372Z,50.22
2022-12-17T11:43:54.283Z,58.73
2022-12-17T11:49:39.452Z,47.75
2022-12-17T11:55:04.724Z,57.22
2022-12-17T12:00:45.994Z,62.70
2022-12-17T12:06:15.795Z,54.90
2022-12-17T12:11:31.947Z,56.30
2022-12-17T12:16:57.766Z,54.05
2022-12-17T12:22:34.765Z,47.35
2022-12-17T12:28:10.012Z,47.20
2022-12-17T12:33:50.628Z,40.22
2022-12-17T12:39:11.540Z,52.13
2022-12-17T12:45:15.236Z,52.50
2022-12-17T12:50:56.364Z,49.58
2022-12-17T12:56:29.021Z,48.40
2022-12-17T13:01:53.471Z,51.13
2022-12-17T13:06:54.499Z,45.25
2022-12-17T13:11:59.908Z,57.00
2022-12-17T13:17:02.260Z,47.70
2022-12-17T13:22:23.682Z,47.97
2022-12-17T13:27:35.568Z,48.67
2022-12-17T13:32:43.873Z,48.17
2022-12-17T13:38:01.953Z,46.03
2022-12-17T13:42:58.758Z,51.50
2022-12-17T13:47:57.247Z,47.25
2022-12-17T13:52:54.443Z,41.95
2022-12-17T13:57:52.600Z,45.95
2022-12-17T14:02:50.113Z,55.60
2022-12-17T14:07:46.757Z,57.13
2022-12-17T14:12:43.444Z,55.10
2022-12-17T14:17:45.776Z,75.90
2022-12-17T14:22:51.442Z,66.93
2022-12-17T14:28:00.430Z,63.28
2022-12-17T14:32:58.350Z,67.43
2022-12-17T14:37:55.442Z,60.10
2022-12-17T14:42:59.429Z,67.18
2022-12-17T14:48:00.880Z,62.78
2022-12-17T14:53:00.073Z,50.70
2022-12-17T14:58:11.715Z,53.72
2022-12-17T15:03:23.468Z,61.33
2022-12-17T15:08:21.378Z,61.28
2022-12-17T15:13:17.843Z,49.38
2022-12-17T15:18:14.469Z,38.38
2022-12-17T15:23:16.319Z,51.25
2022-12-17T15:28:13.187Z,56.63
2022-12-17T15:33:10.692Z,47.90
2022-12-17T15:38:07.909Z,52.83
2022-12-17T15:43:13.615Z,46.97
2022-12-17T15:48:14.652Z,46.03
2022-12-17T15:53:11.009Z,51.13
2022-12-17T15:58:09.039Z,52.25
2022-12-17T16:03:05.733Z,39.77
2022-12-17T16:08:03.062Z,37.25
2022-12-17T16:12:59.537Z,42.55
2022-12-17T16:17:56.235Z,42.55
2022-12-17T16:22:52.630Z,41.25
2022-12-17T16:27:49.004Z,49.75
2022-12-17T16:32:45.425Z,45.13
2022-12-17T16:37:41.811Z,51.90
2022-12-17T16:42:38.269Z,48.67
2022-12-17T16:47:34.797Z,43.38
2022-12-17T16:52:31.842Z,55.08
2022-12-17T16:57:28.277Z,49.05
2022-12-17T17:02:25.269Z,46.08
2022-12-17T17:07:21.885Z,66.43
2022-12-17T17:12:18.339Z,55.15
2022-12-17T17:17:14.867Z,56.08
2022-12-17T17:22:11.295Z,54.28
2022-12-17T17:27:07.651Z,74.25
2022-12-17T17:32:13.121Z,63.85
2022-12-17T17:37:10.123Z,74.32
2022-12-17T17:42:06.534Z,56.90
2022-12-17T17:47:03.155Z,52.60
2022-12-17T17:52:09.325Z,48.67
2022-12-17T17:57:07.314Z,49.40
2022-12-17T18:02:04.464Z,52.38
2022-12-17T18:12:36.271Z,61.05
2022-12-17T18:17:32.633Z,69.70
2022-12-17T18:22:29.373Z,59.10
2022-12-17T18:27:25.769Z,56.38
2022-12-17T18:32:22.145Z,57.85
2022-12-17T18:37:18.631Z,61.92
2022-12-17T18:42:33.634Z,64.20
2022-12-17T18:47:30.580Z,62.20
2022-12-17T18:52:26.943Z,63.83
2022-12-17T18:57:23.334Z,67.95
2022-12-17T19:02:20.314Z,59.45
2022-12-17T19:07:16.817Z,63.03
2022-12-17T19:12:13.236Z,55.67
2022-12-17T19:17:09.857Z,61.15
2022-12-17T19:22:06.750Z,50.25
2022-12-17T19:27:03.199Z,70.28
2022-12-17T19:32:00.173Z,59.60
2022-12-17T19:36:56.645Z,59.42
2022-12-17T19:41:53.485Z,63.60
2022-12-17T19:46:49.836Z,53.10
2022-12-17T19:51:46.243Z,57.85
2022-12-17T19:56:44.260Z,58.13
2022-12-17T20:01:44.402Z,54.10
2022-12-17T20:06:41.210Z,64.72
2022-12-17T20:11:38.115Z,59.45
2022-12-17T20:16:37.550Z,68.90
2022-12-17T20:21:34.378Z,53.03
2022-12-17T20:26:31.170Z,53.50
2022-12-17T20:31:27.810Z,44.80
2022-12-17T20:36:24.318Z,50.25
2022-12-17T20:41:23.996Z,62.67
2022-12-17T20:46:21.685Z,67.22
2022-12-17T20:51:24.134Z,56.85
2022-12-17T20:56:24.573Z,61.38
2022-12-17T21:01:23.429Z,63.25
2022-12-17T21:06:28.763Z,59.03
2022-12-17T21:11:27.543Z,54.38
2022-12-17T21:16:29.764Z,50.28
2022-12-17T21:21:29.355Z,51.70
2022-12-17T21:26:29.199Z,48.00
2022-12-17T21:31:31.374Z,51.85
2022-12-17T21:36:29.787Z,51.38
2022-12-17T21:41:31.339Z,49.20
2022-12-17T21:46:29.137Z,49.08
2022-12-17T21:51:26.488Z,35.00
2022-12-17T21:56:23.829Z,44.35
2022-12-17T22:01:25.308Z,45.17
2022-12-17T22:06:28.121Z,37.45
2022-12-17T22:11:35.821Z,36.72
2022-12-17T22:16:46.614Z,39.70
2022-12-17T22:21:44.546Z,21.60
2022-12-17T22:26:41.554Z,30.37
2022-12-17T22:31:56.672Z,25.20
2022-12-17T22:39:06.287Z,30.23
2022-12-17T22:44:41.939Z,29.50
2022-12-17T22:47:45.702Z,34.90
2022-12-17T22:52:42.073Z,20.10
2022-12-17T22:57:38.919Z,26.42
2022-12-17T23:02:35.423Z,24.98
2022-12-17T23:07:32.240Z,28.27
2022-12-17T23:12:47.355Z,19.48
2022-12-17T23:17:43.755Z,13.80
2022-12-17T23:22:40.169Z,17.23
2022-12-17T23:27:36.882Z,21.55
2022-12-17T23:32:33.321Z,16.92
2022-12-17T23:37:30.549Z,15.02
2022-12-17T23:42:29.264Z,13.35
2022-12-17T23:47:25.620Z,19.08
2022-12-17T23:52:22.004Z,14.25
2022-12-17T23:57:19.572Z,11.85
